Main page
METAR-TAF:

METAR-TAF

Airports :

Naval Air Station Whiting Field North

Milton, Florida, United States

latitude: 30-44-00N, longitude: 087-01-00W, elevation: 197 ft

Current weather observation

The report was made 1 hour and 33 minutes ago, at 06:56 UTC
Wind 3 mph from the North
Temperature 57°F
Humidity 88%
Pressure 30.04 in. Hg
Visibility: 10 miles
Clear sky

METAR: KNSE 240656Z AUTO 01003KT 10SM CLR 14/12 A3004 RMK AO2 SLP157 T01390117 $

Time: 03:29 (08:29 UTC)

Forecast

Forecast valid from 24 at 07 UTC to 25 at 07 UTC
Wind 7 mph from variable directions
Visibility 6.2 miles or more
Clear sky
Becoming
from 24 at 20 UTC to 24 at 22 UTC
Wind 7 mph from variable directions
Visibility: 7910 ft
Few clouds at a height of 6000 ft

TAF: KNSE 2407/2507 VRB06KT 9999 SKC QNH3000INS BECMG 2420/2422 VRB06KT 9999 FEW060 AUTOMATED SENSOR METWATCH 2407 TIL 2411 T15/2412Z T27/2420Z FN00236

Weather observations and forecasts of more than 4000 airports (METAR and TAF reports).

The available stations are represented by yellow and red dots on the map.

Hover mouse over dot to see the name of the station.

Then click to see weather observations and forecasts.

To change the map : click on the green buttons with a black cross to zoom in, on the green button with a dash to zoom out, or on the green arrows for adjacent maps.


METAR-TAF: